sensor_id;sensor_type;location;lat;lon;timestamp;P1;durP1;ratioP1;P2;durP2;ratioP2
83769;SDS011;73763;48.936;9.300;2024-03-25T00:00:31;6.43;;;2.95;;
83769;SDS011;73763;48.936;9.300;2024-03-25T00:02:56;5.57;;;2.70;;
83769;SDS011;73763;48.936;9.300;2024-03-25T00:05:22;6.93;;;2.60;;
83769;SDS011;73763;48.936;9.300;2024-03-25T00:07:48;5.85;;;2.90;;
83769;SDS011;73763;48.936;9.300;2024-03-25T00:10:14;7.35;;;2.80;;
83769;SDS011;73763;48.936;9.300;2024-03-25T00:12:40;5.78;;;2.55;;
83769;SDS011;73763;48.936;9.300;2024-03-25T00:15:05;5.07;;;2.77;;
83769;SDS011;73763;48.936;9.300;2024-03-25T00:17:31;5.50;;;3.00;;
83769;SDS011;73763;48.936;9.300;2024-03-25T00:19:56;7.22;;;3.03;;
83769;SDS011;73763;48.936;9.300;2024-03-25T00:22:22;6.20;;;2.90;;
83769;SDS011;73763;48.936;9.300;2024-03-25T00:24:48;6.60;;;2.50;;
83769;SDS011;73763;48.936;9.300;2024-03-25T00:27:14;6.75;;;2.65;;
83769;SDS011;73763;48.936;9.300;2024-03-25T00:29:40;7.63;;;2.65;;
83769;SDS011;73763;48.936;9.300;2024-03-25T00:32:06;6.47;;;2.55;;
83769;SDS011;73763;48.936;9.300;2024-03-25T00:34:32;4.72;;;2.70;;
83769;SDS011;73763;48.936;9.300;2024-03-25T00:36:58;5.07;;;2.53;;
83769;SDS011;73763;48.936;9.300;2024-03-25T00:39:24;5.80;;;2.70;;
83769;SDS011;73763;48.936;9.300;2024-03-25T00:41:50;8.32;;;3.13;;
83769;SDS011;73763;48.936;9.300;2024-03-25T00:44:16;7.77;;;3.00;;
83769;SDS011;73763;48.936;9.300;2024-03-25T00:46:42;7.53;;;2.80;;
83769;SDS011;73763;48.936;9.300;2024-03-25T00:49:08;6.10;;;2.60;;
83769;SDS011;73763;48.936;9.300;2024-03-25T00:51:35;8.90;;;3.08;;
83769;SDS011;73763;48.936;9.300;2024-03-25T00:54:01;6.22;;;2.75;;
83769;SDS011;73763;48.936;9.300;2024-03-25T00:56:27;6.20;;;3.00;;
83769;SDS011;73763;48.936;9.300;2024-03-25T00:58:52;6.97;;;3.20;;
83769;SDS011;73763;48.936;9.300;2024-03-25T01:01:18;6.17;;;3.40;;
83769;SDS011;73763;48.936;9.300;2024-03-25T01:03:43;6.37;;;2.73;;
83769;SDS011;73763;48.936;9.300;2024-03-25T01:06:09;6.78;;;3.20;;
83769;SDS011;73763;48.936;9.300;2024-03-25T01:08:35;8.07;;;2.70;;
83769;SDS011;73763;48.936;9.300;2024-03-25T01:11:01;8.07;;;3.20;;
83769;SDS011;73763;48.936;9.300;2024-03-25T01:13:26;6.40;;;3.22;;
83769;SDS011;73763;48.936;9.300;2024-03-25T01:15:52;6.63;;;3.30;;
83769;SDS011;73763;48.936;9.300;2024-03-25T01:18:17;7.35;;;2.97;;
83769;SDS011;73763;48.936;9.300;2024-03-25T01:20:43;7.90;;;3.33;;
83769;SDS011;73763;48.936;9.300;2024-03-25T01:23:08;5.95;;;2.60;;
83769;SDS011;73763;48.936;9.300;2024-03-25T01:25:34;9.07;;;3.27;;
83769;SDS011;73763;48.936;9.300;2024-03-25T01:27:59;6.15;;;3.03;;
83769;SDS011;73763;48.936;9.300;2024-03-25T01:30:25;6.00;;;2.90;;
83769;SDS011;73763;48.936;9.300;2024-03-25T01:32:50;6.43;;;3.42;;
83769;SDS011;73763;48.936;9.300;2024-03-25T01:35:16;9.57;;;3.17;;
83769;SDS011;73763;48.936;9.300;2024-03-25T01:37:41;5.97;;;3.03;;
83769;SDS011;73763;48.936;9.300;2024-03-25T01:40:07;7.80;;;2.97;;
83769;SDS011;73763;48.936;9.300;2024-03-25T01:42:33;6.82;;;2.92;;
83769;SDS011;73763;48.936;9.300;2024-03-25T01:44:58;5.97;;;3.00;;
83769;SDS011;73763;48.936;9.300;2024-03-25T01:47:24;6.80;;;3.20;;
83769;SDS011;73763;48.936;9.300;2024-03-25T01:49:50;6.78;;;3.08;;
83769;SDS011;73763;48.936;9.300;2024-03-25T01:52:16;6.82;;;2.92;;
83769;SDS011;73763;48.936;9.300;2024-03-25T01:54:42;6.97;;;2.87;;
83769;SDS011;73763;48.936;9.300;2024-03-25T01:57:07;7.33;;;3.10;;
83769;SDS011;73763;48.936;9.300;2024-03-25T01:59:33;9.93;;;3.50;;
83769;SDS011;73763;48.936;9.300;2024-03-25T02:01:59;6.07;;;3.30;;
83769;SDS011;73763;48.936;9.300;2024-03-25T02:04:25;8.57;;;3.05;;
83769;SDS011;73763;48.936;9.300;2024-03-25T02:06:52;6.75;;;3.13;;
83769;SDS011;73763;48.936;9.300;2024-03-25T02:09:19;7.13;;;3.28;;
83769;SDS011;73763;48.936;9.300;2024-03-25T02:11:45;7.30;;;3.23;;
83769;SDS011;73763;48.936;9.300;2024-03-25T02:14:11;5.70;;;2.85;;
83769;SDS011;73763;48.936;9.300;2024-03-25T02:16:36;5.80;;;3.35;;
83769;SDS011;73763;48.936;9.300;2024-03-25T02:19:02;6.50;;;3.03;;
83769;SDS011;73763;48.936;9.300;2024-03-25T02:21:27;7.25;;;3.10;;
83769;SDS011;73763;48.936;9.300;2024-03-25T02:26:56;7.75;;;3.60;;
83769;SDS011;73763;48.936;9.300;2024-03-25T02:29:22;7.87;;;3.17;;
83769;SDS011;73763;48.936;9.300;2024-03-25T02:31:47;5.53;;;3.07;;
83769;SDS011;73763;48.936;9.300;2024-03-25T02:34:13;6.93;;;3.13;;
83769;SDS011;73763;48.936;9.300;2024-03-25T02:36:38;6.13;;;3.13;;
83769;SDS011;73763;48.936;9.300;2024-03-25T02:39:04;8.70;;;3.00;;
83769;SDS011;73763;48.936;9.300;2024-03-25T02:41:30;6.93;;;3.23;;
83769;SDS011;73763;48.936;9.300;2024-03-25T02:43:55;5.27;;;3.40;;
83769;SDS011;73763;48.936;9.300;2024-03-25T02:46:21;8.70;;;3.65;;
83769;SDS011;73763;48.936;9.300;2024-03-25T02:48:47;9.30;;;3.58;;
83769;SDS011;73763;48.936;9.300;2024-03-25T02:51:13;9.18;;;3.50;;
83769;SDS011;73763;48.936;9.300;2024-03-25T02:53:38;6.93;;;3.40;;
83769;SDS011;73763;48.936;9.300;2024-03-25T02:56:05;5.80;;;3.33;;
83769;SDS011;73763;48.936;9.300;2024-03-25T02:58:30;8.53;;;3.67;;
83769;SDS011;73763;48.936;9.300;2024-03-25T03:00:56;8.80;;;4.18;;
83769;SDS011;73763;48.936;9.300;2024-03-25T03:03:21;6.43;;;3.60;;
83769;SDS011;73763;48.936;9.300;2024-03-25T03:05:47;7.43;;;3.60;;
83769;SDS011;73763;48.936;9.300;2024-03-25T03:08:12;6.63;;;3.80;;
83769;SDS011;73763;48.936;9.300;2024-03-25T03:10:38;9.20;;;3.53;;
83769;SDS011;73763;48.936;9.300;2024-03-25T03:13:03;9.43;;;3.90;;
83769;SDS011;73763;48.936;9.300;2024-03-25T03:15:29;5.63;;;3.50;;
83769;SDS011;73763;48.936;9.300;2024-03-25T03:17:54;8.17;;;3.50;;
83769;SDS011;73763;48.936;9.300;2024-03-25T03:20:20;7.53;;;3.70;;
83769;SDS011;73763;48.936;9.300;2024-03-25T03:22:45;7.35;;;3.70;;
83769;SDS011;73763;48.936;9.300;2024-03-25T03:25:11;7.93;;;3.57;;
83769;SDS011;73763;48.936;9.300;2024-03-25T03:27:36;8.30;;;3.50;;
83769;SDS011;73763;48.936;9.300;2024-03-25T03:30:02;7.10;;;3.73;;
83769;SDS011;73763;48.936;9.300;2024-03-25T03:32:27;6.40;;;3.50;;
83769;SDS011;73763;48.936;9.300;2024-03-25T03:34:54;5.90;;;3.47;;
83769;SDS011;73763;48.936;9.300;2024-03-25T03:37:19;6.85;;;3.22;;
83769;SDS011;73763;48.936;9.300;2024-03-25T03:39:45;8.57;;;3.60;;
83769;SDS011;73763;48.936;9.300;2024-03-25T03:42:10;9.00;;;3.55;;
83769;SDS011;73763;48.936;9.300;2024-03-25T03:44:36;8.33;;;3.90;;
83769;SDS011;73763;48.936;9.300;2024-03-25T03:47:01;9.80;;;3.58;;
83769;SDS011;73763;48.936;9.300;2024-03-25T03:49:27;5.93;;;3.40;;
83769;SDS011;73763;48.936;9.300;2024-03-25T03:51:52;10.38;;;3.65;;
83769;SDS011;73763;48.936;9.300;2024-03-25T03:54:18;7.30;;;3.43;;
83769;SDS011;73763;48.936;9.300;2024-03-25T03:56:43;8.20;;;3.57;;
83769;SDS011;73763;48.936;9.300;2024-03-25T03:59:09;5.67;;;3.27;;
83769;SDS011;73763;48.936;9.300;2024-03-25T04:01:34;10.87;;;3.67;;
83769;SDS011;73763;48.936;9.300;2024-03-25T04:04:00;8.77;;;3.40;;
83769;SDS011;73763;48.936;9.300;2024-03-25T04:06:25;7.63;;;3.77;;
83769;SDS011;73763;48.936;9.300;2024-03-25T04:08:51;9.60;;;3.78;;
83769;SDS011;73763;48.936;9.300;2024-03-25T04:11:16;10.57;;;4.60;;
83769;SDS011;73763;48.936;9.300;2024-03-25T04:13:42;10.30;;;3.70;;
83769;SDS011;73763;48.936;9.300;2024-03-25T04:16:07;8.07;;;4.17;;
83769;SDS011;73763;48.936;9.300;2024-03-25T04:18:33;6.45;;;3.53;;
83769;SDS011;73763;48.936;9.300;2024-03-25T04:20:59;6.37;;;3.57;;
83769;SDS011;73763;48.936;9.300;2024-03-25T04:23:25;6.35;;;3.80;;
83769;SDS011;73763;48.936;9.300;2024-03-25T04:25:51;7.30;;;3.50;;
83769;SDS011;73763;48.936;9.300;2024-03-25T04:28:16;9.02;;;3.40;;
83769;SDS011;73763;48.936;9.300;2024-03-25T04:30:42;8.20;;;3.80;;
83769;SDS011;73763;48.936;9.300;2024-03-25T04:33:08;7.93;;;3.83;;
83769;SDS011;73763;48.936;9.300;2024-03-25T04:35:33;8.85;;;4.18;;
83769;SDS011;73763;48.936;9.300;2024-03-25T04:37:59;8.73;;;4.50;;
83769;SDS011;73763;48.936;9.300;2024-03-25T04:40:25;7.80;;;3.88;;
83769;SDS011;73763;48.936;9.300;2024-03-25T04:42:50;8.37;;;3.90;;
83769;SDS011;73763;48.936;9.300;2024-03-25T04:45:16;8.47;;;4.10;;
83769;SDS011;73763;48.936;9.300;2024-03-25T04:47:41;10.37;;;3.90;;
83769;SDS011;73763;48.936;9.300;2024-03-25T04:50:07;6.97;;;3.60;;
83769;SDS011;73763;48.936;9.300;2024-03-25T04:52:33;8.48;;;4.18;;
83769;SDS011;73763;48.936;9.300;2024-03-25T04:54:59;9.73;;;4.45;;
83769;SDS011;73763;48.936;9.300;2024-03-25T04:57:24;15.43;;;6.00;;
83769;SDS011;73763;48.936;9.300;2024-03-25T04:59:50;12.82;;;5.40;;
83769;SDS011;73763;48.936;9.300;2024-03-25T05:02:15;9.30;;;4.57;;
83769;SDS011;73763;48.936;9.300;2024-03-25T05:04:41;9.43;;;4.57;;
83769;SDS011;73763;48.936;9.300;2024-03-25T05:07:06;10.80;;;4.17;;
83769;SDS011;73763;48.936;9.300;2024-03-25T05:09:32;7.33;;;4.43;;
83769;SDS011;73763;48.936;9.300;2024-03-25T05:11:58;7.15;;;4.15;;
83769;SDS011;73763;48.936;9.300;2024-03-25T05:14:24;9.57;;;4.50;;
83769;SDS011;73763;48.936;9.300;2024-03-25T05:16:49;8.93;;;4.53;;
83769;SDS011;73763;48.936;9.300;2024-03-25T05:19:15;11.32;;;4.60;;
83769;SDS011;73763;48.936;9.300;2024-03-25T05:21:40;9.93;;;4.47;;
83769;SDS011;73763;48.936;9.300;2024-03-25T05:24:06;9.23;;;4.50;;
83769;SDS011;73763;48.936;9.300;2024-03-25T05:26:31;8.63;;;4.67;;
83769;SDS011;73763;48.936;9.300;2024-03-25T05:28:57;8.43;;;4.32;;
83769;SDS011;73763;48.936;9.300;2024-03-25T05:31:23;9.47;;;4.73;;
83769;SDS011;73763;48.936;9.300;2024-03-25T05:33:50;9.90;;;4.72;;
83769;SDS011;73763;48.936;9.300;2024-03-25T05:36:16;7.17;;;4.70;;
83769;SDS011;73763;48.936;9.300;2024-03-25T05:38:41;12.98;;;5.43;;
83769;SDS011;73763;48.936;9.300;2024-03-25T05:41:07;10.85;;;4.80;;
83769;SDS011;73763;48.936;9.300;2024-03-25T05:43:33;11.25;;;5.45;;
83769;SDS011;73763;48.936;9.300;2024-03-25T05:45:59;7.10;;;4.68;;
83769;SDS011;73763;48.936;9.300;2024-03-25T05:48:25;10.17;;;4.97;;
83769;SDS011;73763;48.936;9.300;2024-03-25T05:53:29;9.43;;;4.75;;
83769;SDS011;73763;48.936;9.300;2024-03-25T05:55:55;9.00;;;4.55;;
83769;SDS011;73763;48.936;9.300;2024-03-25T05:58:20;9.48;;;4.35;;
83769;SDS011;73763;48.936;9.300;2024-03-25T06:00:46;10.37;;;4.97;;
83769;SDS011;73763;48.936;9.300;2024-03-25T06:03:13;6.75;;;4.07;;
83769;SDS011;73763;48.936;9.300;2024-03-25T06:05:39;9.75;;;4.50;;
83769;SDS011;73763;48.936;9.300;2024-03-25T06:08:05;6.57;;;4.05;;
83769;SDS011;73763;48.936;9.300;2024-03-25T06:10:36;8.90;;;4.63;;
83769;SDS011;73763;48.936;9.300;2024-03-25T06:13:02;9.07;;;4.45;;
83769;SDS011;73763;48.936;9.300;2024-03-25T06:15:27;8.02;;;3.95;;
83769;SDS011;73763;48.936;9.300;2024-03-25T06:17:53;9.30;;;4.47;;
83769;SDS011;73763;48.936;9.300;2024-03-25T06:20:20;8.77;;;4.10;;
83769;SDS011;73763;48.936;9.300;2024-03-25T06:22:46;8.77;;;4.23;;
83769;SDS011;73763;48.936;9.300;2024-03-25T06:25:11;9.18;;;3.90;;
83769;SDS011;73763;48.936;9.300;2024-03-25T06:27:37;8.13;;;4.50;;
83769;SDS011;73763;48.936;9.300;2024-03-25T06:30:02;8.13;;;3.97;;
83769;SDS011;73763;48.936;9.300;2024-03-25T06:32:28;7.70;;;4.20;;
83769;SDS011;73763;48.936;9.300;2024-03-25T06:34:54;7.77;;;3.87;;
83769;SDS011;73763;48.936;9.300;2024-03-25T06:37:20;10.65;;;4.55;;
83769;SDS011;73763;48.936;9.300;2024-03-25T06:39:45;12.57;;;5.50;;
83769;SDS011;73763;48.936;9.300;2024-03-25T06:42:11;9.37;;;4.13;;
83769;SDS011;73763;48.936;9.300;2024-03-25T06:44:37;9.50;;;4.30;;
83769;SDS011;73763;48.936;9.300;2024-03-25T06:47:03;10.38;;;5.10;;
83769;SDS011;73763;48.936;9.300;2024-03-25T06:49:29;8.30;;;4.70;;
83769;SDS011;73763;48.936;9.300;2024-03-25T06:51:54;11.63;;;5.50;;
83769;SDS011;73763;48.936;9.300;2024-03-25T06:54:20;12.48;;;5.63;;
83769;SDS011;73763;48.936;9.300;2024-03-25T06:56:45;12.10;;;4.90;;
83769;SDS011;73763;48.936;9.300;2024-03-25T06:59:11;9.50;;;4.88;;
83769;SDS011;73763;48.936;9.300;2024-03-25T07:01:36;8.40;;;4.20;;
83769;SDS011;73763;48.936;9.300;2024-03-25T07:04:02;7.95;;;3.83;;
83769;SDS011;73763;48.936;9.300;2024-03-25T07:06:27;6.43;;;3.67;;
83769;SDS011;73763;48.936;9.300;2024-03-25T07:08:54;8.40;;;3.80;;
83769;SDS011;73763;48.936;9.300;2024-03-25T07:11:19;6.63;;;3.35;;
83769;SDS011;73763;48.936;9.300;2024-03-25T07:13:45;9.33;;;3.43;;
83769;SDS011;73763;48.936;9.300;2024-03-25T07:16:10;7.45;;;3.30;;
83769;SDS011;73763;48.936;9.300;2024-03-25T07:18:36;7.50;;;3.00;;
83769;SDS011;73763;48.936;9.300;2024-03-25T07:21:01;5.27;;;2.97;;
83769;SDS011;73763;48.936;9.300;2024-03-25T07:23:27;6.65;;;3.55;;
83769;SDS011;73763;48.936;9.300;2024-03-25T07:25:52;6.50;;;3.57;;
83769;SDS011;73763;48.936;9.300;2024-03-25T07:28:18;5.53;;;3.00;;
83769;SDS011;73763;48.936;9.300;2024-03-25T07:30:43;5.57;;;3.40;;
83769;SDS011;73763;48.936;9.300;2024-03-25T07:33:09;8.40;;;3.17;;
83769;SDS011;73763;48.936;9.300;2024-03-25T07:35:34;7.45;;;3.33;;
83769;SDS011;73763;48.936;9.300;2024-03-25T07:38:00;7.90;;;3.73;;
83769;SDS011;73763;48.936;9.300;2024-03-25T07:40:25;6.83;;;3.33;;
83769;SDS011;73763;48.936;9.300;2024-03-25T07:42:51;7.72;;;3.10;;
83769;SDS011;73763;48.936;9.300;2024-03-25T07:45:16;8.70;;;3.23;;
83769;SDS011;73763;48.936;9.300;2024-03-25T07:47:42;6.40;;;3.30;;
83769;SDS011;73763;48.936;9.300;2024-03-25T07:50:08;8.10;;;3.57;;
83769;SDS011;73763;48.936;9.300;2024-03-25T07:52:34;6.82;;;2.97;;
83769;SDS011;73763;48.936;9.300;2024-03-25T07:55:00;8.43;;;3.10;;
83769;SDS011;73763;48.936;9.300;2024-03-25T07:57:25;9.75;;;3.20;;
83769;SDS011;73763;48.936;9.300;2024-03-25T07:59:50;7.20;;;3.20;;
83769;SDS011;73763;48.936;9.300;2024-03-25T08:02:16;6.93;;;3.30;;
83769;SDS011;73763;48.936;9.300;2024-03-25T08:04:41;7.97;;;3.27;;
83769;SDS011;73763;48.936;9.300;2024-03-25T08:07:07;6.45;;;3.10;;
83769;SDS011;73763;48.936;9.300;2024-03-25T08:09:32;5.65;;;2.58;;
83769;SDS011;73763;48.936;9.300;2024-03-25T08:11:58;5.97;;;2.40;;
83769;SDS011;73763;48.936;9.300;2024-03-25T08:14:24;6.13;;;2.53;;
83769;SDS011;73763;48.936;9.300;2024-03-25T08:16:49;7.00;;;2.60;;
83769;SDS011;73763;48.936;9.300;2024-03-25T08:19:15;7.47;;;2.60;;
83769;SDS011;73763;48.936;9.300;2024-03-25T08:21:41;7.10;;;2.65;;
83769;SDS011;73763;48.936;9.300;2024-03-25T08:24:06;7.07;;;2.80;;
83769;SDS011;73763;48.936;9.300;2024-03-25T08:26:32;5.43;;;2.40;;
83769;SDS011;73763;48.936;9.300;2024-03-25T08:28:57;7.63;;;2.90;;
83769;SDS011;73763;48.936;9.300;2024-03-25T08:31:23;6.43;;;2.50;;
83769;SDS011;73763;48.936;9.300;2024-03-25T08:33:49;5.50;;;2.40;;
83769;SDS011;73763;48.936;9.300;2024-03-25T08:36:14;5.30;;;2.60;;
83769;SDS011;73763;48.936;9.300;2024-03-25T08:38:40;4.75;;;2.03;;
83769;SDS011;73763;48.936;9.300;2024-03-25T08:41:05;5.07;;;2.23;;
83769;SDS011;73763;48.936;9.300;2024-03-25T08:43:31;7.37;;;2.40;;
83769;SDS011;73763;48.936;9.300;2024-03-25T08:45:56;7.57;;;2.30;;
83769;SDS011;73763;48.936;9.300;2024-03-25T08:48:22;7.43;;;2.50;;
83769;SDS011;73763;48.936;9.300;2024-03-25T08:50:47;5.07;;;2.30;;
83769;SDS011;73763;48.936;9.300;2024-03-25T08:53:13;5.57;;;2.07;;
83769;SDS011;73763;48.936;9.300;2024-03-25T08:55:43;5.17;;;1.90;;
83769;SDS011;73763;48.936;9.300;2024-03-25T08:58:15;5.63;;;1.95;;
83769;SDS011;73763;48.936;9.300;2024-03-25T09:00:41;5.00;;;2.15;;
83769;SDS011;73763;48.936;9.300;2024-03-25T09:03:07;5.45;;;2.92;;
83769;SDS011;73763;48.936;9.300;2024-03-25T09:05:33;5.03;;;2.43;;
83769;SDS011;73763;48.936;9.300;2024-03-25T09:07:59;6.53;;;2.30;;
83769;SDS011;73763;48.936;9.300;2024-03-25T09:10:25;7.50;;;2.50;;
83769;SDS011;73763;48.936;9.300;2024-03-25T09:12:50;5.13;;;2.33;;
83769;SDS011;73763;48.936;9.300;2024-03-25T09:15:16;5.55;;;2.30;;
83769;SDS011;73763;48.936;9.300;2024-03-25T09:17:41;4.93;;;2.30;;
83769;SDS011;73763;48.936;9.300;2024-03-25T09:20:07;5.20;;;2.07;;
83769;SDS011;73763;48.936;9.300;2024-03-25T09:22:33;4.85;;;2.30;;
83769;SDS011;73763;48.936;9.300;2024-03-25T09:24:58;6.38;;;2.30;;
83769;SDS011;73763;48.936;9.300;2024-03-25T09:27:24;4.00;;;2.13;;
83769;SDS011;73763;48.936;9.300;2024-03-25T09:29:49;3.63;;;2.00;;
83769;SDS011;73763;48.936;9.300;2024-03-25T09:32:15;5.20;;;2.03;;
83769;SDS011;73763;48.936;9.300;2024-03-25T09:34:40;4.57;;;1.90;;
83769;SDS011;73763;48.936;9.300;2024-03-25T09:37:06;5.90;;;2.00;;
83769;SDS011;73763;48.936;9.300;2024-03-25T09:39:31;5.17;;;2.10;;
83769;SDS011;73763;48.936;9.300;2024-03-25T09:41:57;4.67;;;1.80;;
83769;SDS011;73763;48.936;9.300;2024-03-25T09:44:25;5.47;;;2.03;;
83769;SDS011;73763;48.936;9.300;2024-03-25T09:46:51;4.80;;;1.83;;
83769;SDS011;73763;48.936;9.300;2024-03-25T09:49:17;5.68;;;1.88;;
83769;SDS011;73763;48.936;9.300;2024-03-25T09:51:44;5.78;;;1.75;;
83769;SDS011;73763;48.936;9.300;2024-03-25T09:54:09;3.95;;;1.70;;
83769;SDS011;73763;48.936;9.300;2024-03-25T09:56:34;4.33;;;1.80;;
83769;SDS011;73763;48.936;9.300;2024-03-25T09:59:01;3.15;;;1.65;;
83769;SDS011;73763;48.936;9.300;2024-03-25T10:01:27;4.60;;;1.80;;
83769;SDS011;73763;48.936;9.300;2024-03-25T10:03:52;3.60;;;1.70;;
83769;SDS011;73763;48.936;9.300;2024-03-25T10:06:18;4.35;;;1.75;;
83769;SDS011;73763;48.936;9.300;2024-03-25T10:08:47;4.80;;;1.80;;
83769;SDS011;73763;48.936;9.300;2024-03-25T10:11:13;6.03;;;2.00;;
83769;SDS011;73763;48.936;9.300;2024-03-25T10:13:40;6.30;;;2.00;;
83769;SDS011;73763;48.936;9.300;2024-03-25T10:16:07;5.07;;;2.17;;
83769;SDS011;73763;48.936;9.300;2024-03-25T10:18:32;4.75;;;1.98;;
83769;SDS011;73763;48.936;9.300;2024-03-25T10:20:58;4.43;;;1.75;;
83769;SDS011;73763;48.936;9.300;2024-03-25T10:23:23;4.95;;;1.90;;
83769;SDS011;73763;48.936;9.300;2024-03-25T10:25:51;7.77;;;2.27;;
83769;SDS011;73763;48.936;9.300;2024-03-25T10:28:17;5.13;;;2.33;;
83769;SDS011;73763;48.936;9.300;2024-03-25T10:30:42;3.97;;;2.03;;
83769;SDS011;73763;48.936;9.300;2024-03-25T10:33:09;4.78;;;1.83;;
83769;SDS011;73763;48.936;9.300;2024-03-25T10:35:35;3.67;;;1.80;;
83769;SDS011;73763;48.936;9.300;2024-03-25T10:38:02;4.85;;;2.13;;
83769;SDS011;73763;48.936;9.300;2024-03-25T10:40:29;4.27;;;1.70;;
83769;SDS011;73763;48.936;9.300;2024-03-25T10:43:00;5.63;;;2.03;;
83769;SDS011;73763;48.936;9.300;2024-03-25T10:45:30;4.78;;;1.95;;
83769;SDS011;73763;48.936;9.300;2024-03-25T10:47:57;4.63;;;1.67;;
83769;SDS011;73763;48.936;9.300;2024-03-25T10:50:24;3.90;;;1.67;;
83769;SDS011;73763;48.936;9.300;2024-03-25T10:52:53;3.93;;;1.90;;
83769;SDS011;73763;48.936;9.300;2024-03-25T10:55:20;4.75;;;1.80;;
83769;SDS011;73763;48.936;9.300;2024-03-25T10:57:46;2.90;;;1.55;;
83769;SDS011;73763;48.936;9.300;2024-03-25T11:00:13;5.10;;;1.90;;
83769;SDS011;73763;48.936;9.300;2024-03-25T11:02:41;4.03;;;2.10;;
83769;SDS011;73763;48.936;9.300;2024-03-25T11:05:07;5.35;;;2.00;;
83769;SDS011;73763;48.936;9.300;2024-03-25T11:07:33;4.00;;;1.60;;
83769;SDS011;73763;48.936;9.300;2024-03-25T11:10:02;4.07;;;1.80;;
83769;SDS011;73763;48.936;9.300;2024-03-25T11:12:31;3.65;;;1.65;;
83769;SDS011;73763;48.936;9.300;2024-03-25T11:15:00;4.40;;;1.98;;
83769;SDS011;73763;48.936;9.300;2024-03-25T11:17:32;4.07;;;1.63;;
83769;SDS011;73763;48.936;9.300;2024-03-25T11:20:11;3.80;;;1.80;;
83769;SDS011;73763;48.936;9.300;2024-03-25T11:22:50;3.70;;;1.80;;
83769;SDS011;73763;48.936;9.300;2024-03-25T11:25:16;4.25;;;1.70;;
83769;SDS011;73763;48.936;9.300;2024-03-25T11:27:46;4.88;;;1.90;;
83769;SDS011;73763;48.936;9.300;2024-03-25T11:30:12;3.57;;;1.70;;
83769;SDS011;73763;48.936;9.300;2024-03-25T11:32:46;3.45;;;1.52;;
83769;SDS011;73763;48.936;9.300;2024-03-25T11:35:16;5.03;;;1.88;;
83769;SDS011;73763;48.936;9.300;2024-03-25T11:37:41;5.80;;;1.83;;
83769;SDS011;73763;48.936;9.300;2024-03-25T11:40:08;4.38;;;1.98;;
83769;SDS011;73763;48.936;9.300;2024-03-25T11:42:35;3.92;;;2.15;;
83769;SDS011;73763;48.936;9.300;2024-03-25T11:45:01;5.63;;;2.10;;
83769;SDS011;73763;48.936;9.300;2024-03-25T11:47:30;5.22;;;2.10;;
83769;SDS011;73763;48.936;9.300;2024-03-25T11:49:56;6.30;;;1.92;;
83769;SDS011;73763;48.936;9.300;2024-03-25T11:52:21;3.77;;;1.63;;
83769;SDS011;73763;48.936;9.300;2024-03-25T11:54:53;4.67;;;1.60;;
83769;SDS011;73763;48.936;9.300;2024-03-25T11:57:20;5.85;;;1.77;;
83769;SDS011;73763;48.936;9.300;2024-03-25T11:59:46;5.13;;;1.90;;
83769;SDS011;73763;48.936;9.300;2024-03-25T12:02:12;4.10;;;1.80;;
83769;SDS011;73763;48.936;9.300;2024-03-25T12:04:38;4.33;;;2.10;;
83769;SDS011;73763;48.936;9.300;2024-03-25T12:07:07;3.33;;;1.73;;
83769;SDS011;73763;48.936;9.300;2024-03-25T12:09:34;3.47;;;1.67;;
83769;SDS011;73763;48.936;9.300;2024-03-25T12:12:00;3.95;;;1.90;;
83769;SDS011;73763;48.936;9.300;2024-03-25T12:14:25;5.38;;;1.83;;
83769;SDS011;73763;48.936;9.300;2024-03-25T12:16:51;4.22;;;1.90;;
83769;SDS011;73763;48.936;9.300;2024-03-25T12:19:18;3.80;;;1.70;;
83769;SDS011;73763;48.936;9.300;2024-03-25T12:21:43;3.60;;;1.93;;
83769;SDS011;73763;48.936;9.300;2024-03-25T12:24:09;3.07;;;1.53;;
83769;SDS011;73763;48.936;9.300;2024-03-25T12:26:36;2.88;;;1.60;;
83769;SDS011;73763;48.936;9.300;2024-03-25T12:29:01;4.30;;;1.93;;
83769;SDS011;73763;48.936;9.300;2024-03-25T12:31:27;4.20;;;2.10;;
83769;SDS011;73763;48.936;9.300;2024-03-25T12:33:52;3.10;;;1.52;;
83769;SDS011;73763;48.936;9.300;2024-03-25T12:36:19;3.38;;;1.67;;
83769;SDS011;73763;48.936;9.300;2024-03-25T12:38:53;3.72;;;1.90;;
83769;SDS011;73763;48.936;9.300;2024-03-25T12:41:22;4.05;;;1.85;;
83769;SDS011;73763;48.936;9.300;2024-03-25T12:43:49;4.53;;;1.90;;
83769;SDS011;73763;48.936;9.300;2024-03-25T12:46:15;4.45;;;1.88;;
83769;SDS011;73763;48.936;9.300;2024-03-25T12:48:41;3.33;;;1.57;;
83769;SDS011;73763;48.936;9.300;2024-03-25T12:53:39;4.03;;;1.90;;
83769;SDS011;73763;48.936;9.300;2024-03-25T12:56:05;3.17;;;1.80;;
83769;SDS011;73763;48.936;9.300;2024-03-25T12:58:31;6.63;;;2.00;;
83769;SDS011;73763;48.936;9.300;2024-03-25T13:00:57;3.75;;;1.70;;
83769;SDS011;73763;48.936;9.300;2024-03-25T13:03:22;4.20;;;1.97;;
83769;SDS011;73763;48.936;9.300;2024-03-25T13:05:48;5.00;;;1.90;;
83769;SDS011;73763;48.936;9.300;2024-03-25T13:08:13;3.77;;;1.90;;
83769;SDS011;73763;48.936;9.300;2024-03-25T13:10:39;2.73;;;1.70;;
83769;SDS011;73763;48.936;9.300;2024-03-25T13:13:04;3.25;;;1.83;;
83769;SDS011;73763;48.936;9.300;2024-03-25T13:15:30;3.77;;;1.63;;
83769;SDS011;73763;48.936;9.300;2024-03-25T13:17:56;4.50;;;1.67;;
83769;SDS011;73763;48.936;9.300;2024-03-25T13:20:21;5.15;;;1.90;;
83769;SDS011;73763;48.936;9.300;2024-03-25T13:22:48;4.20;;;1.75;;
83769;SDS011;73763;48.936;9.300;2024-03-25T13:25:14;2.28;;;1.58;;
83769;SDS011;73763;48.936;9.300;2024-03-25T13:27:40;2.70;;;1.60;;
83769;SDS011;73763;48.936;9.300;2024-03-25T13:30:05;2.93;;;1.80;;
83769;SDS011;73763;48.936;9.300;2024-03-25T13:32:31;4.65;;;1.70;;
83769;SDS011;73763;48.936;9.300;2024-03-25T13:34:57;2.97;;;1.67;;
83769;SDS011;73763;48.936;9.300;2024-03-25T13:37:23;4.93;;;1.87;;
83769;SDS011;73763;48.936;9.300;2024-03-25T13:39:48;3.53;;;1.58;;
83769;SDS011;73763;48.936;9.300;2024-03-25T13:42:14;4.38;;;1.92;;
83769;SDS011;73763;48.936;9.300;2024-03-25T13:44:39;3.40;;;1.67;;
83769;SDS011;73763;48.936;9.300;2024-03-25T13:47:05;3.50;;;1.70;;
83769;SDS011;73763;48.936;9.300;2024-03-25T13:49:30;2.37;;;1.47;;
83769;SDS011;73763;48.936;9.300;2024-03-25T13:51:59;2.90;;;1.67;;
83769;SDS011;73763;48.936;9.300;2024-03-25T13:54:25;2.57;;;1.87;;
83769;SDS011;73763;48.936;9.300;2024-03-25T13:56:52;2.28;;;1.48;;
83769;SDS011;73763;48.936;9.300;2024-03-25T13:59:17;3.30;;;1.67;;
83769;SDS011;73763;48.936;9.300;2024-03-25T14:01:43;4.15;;;1.90;;
83769;SDS011;73763;48.936;9.300;2024-03-25T14:04:08;1.90;;;1.25;;
83769;SDS011;73763;48.936;9.300;2024-03-25T14:06:34;2.95;;;1.70;;
83769;SDS011;73763;48.936;9.300;2024-03-25T14:08:59;4.93;;;1.97;;
83769;SDS011;73763;48.936;9.300;2024-03-25T14:11:25;3.67;;;1.60;;
83769;SDS011;73763;48.936;9.300;2024-03-25T14:13:50;4.50;;;1.63;;
83769;SDS011;73763;48.936;9.300;2024-03-25T14:16:16;4.07;;;1.53;;
83769;SDS011;73763;48.936;9.300;2024-03-25T14:18:41;3.50;;;1.60;;
83769;SDS011;73763;48.936;9.300;2024-03-25T14:21:07;3.90;;;1.57;;
83769;SDS011;73763;48.936;9.300;2024-03-25T14:23:32;3.43;;;1.50;;
83769;SDS011;73763;48.936;9.300;2024-03-25T14:25:58;3.67;;;1.50;;
83769;SDS011;73763;48.936;9.300;2024-03-25T14:28:24;2.50;;;1.40;;
83769;SDS011;73763;48.936;9.300;2024-03-25T14:30:49;2.70;;;1.50;;
83769;SDS011;73763;48.936;9.300;2024-03-25T14:33:15;2.20;;;1.38;;
83769;SDS011;73763;48.936;9.300;2024-03-25T14:35:41;3.67;;;1.50;;
83769;SDS011;73763;48.936;9.300;2024-03-25T14:38:07;3.30;;;1.70;;
83769;SDS011;73763;48.936;9.300;2024-03-25T14:40:32;3.47;;;1.60;;
83769;SDS011;73763;48.936;9.300;2024-03-25T14:43:02;2.08;;;1.30;;
83769;SDS011;73763;48.936;9.300;2024-03-25T14:45:27;3.57;;;1.50;;
83769;SDS011;73763;48.936;9.300;2024-03-25T14:47:53;2.93;;;1.40;;